createdAt,value
2023-05-15T00:00:34.111Z,9.02
2023-05-15T00:01:37.867Z,8.00
2023-05-15T00:02:39.967Z,9.02
2023-05-15T00:03:43.358Z,8.18
2023-05-15T00:04:45.086Z,10.55
2023-05-15T00:05:47.651Z,8.63
2023-05-15T00:06:49.208Z,8.25
2023-05-15T00:07:51.674Z,8.50
2023-05-15T00:08:53.166Z,10.27
2023-05-15T00:09:55.584Z,10.75
2023-05-15T00:12:02.444Z,8.27
2023-05-15T00:13:03.943Z,8.38
2023-05-15T00:14:06.575Z,8.63
2023-05-15T00:15:09.075Z,8.88
2023-05-15T00:16:11.974Z,9.02
2023-05-15T00:17:14.935Z,8.38
2023-05-15T00:18:17.420Z,8.52
2023-05-15T00:19:19.106Z,9.05
2023-05-15T00:20:21.832Z,7.95
2023-05-15T00:21:23.313Z,8.32
2023-05-15T00:22:25.913Z,7.75
2023-05-15T00:23:27.394Z,8.13
2023-05-15T00:24:29.831Z,7.90
2023-05-15T00:25:31.362Z,7.53
2023-05-15T00:26:33.805Z,10.60
2023-05-15T00:27:35.315Z,8.43
2023-05-15T00:28:37.790Z,9.02
2023-05-15T00:29:39.318Z,8.55
2023-05-15T00:30:41.753Z,8.98
2023-05-15T00:31:43.282Z,8.50
2023-05-15T00:32:47.150Z,8.25
2023-05-15T00:33:48.693Z,8.38
2023-05-15T00:34:51.140Z,10.25
2023-05-15T00:35:52.673Z,8.65
2023-05-15T00:36:55.142Z,8.57
2023-05-15T00:37:56.699Z,9.80
2023-05-15T00:38:59.142Z,8.13
2023-05-15T00:40:00.869Z,9.27
2023-05-15T00:41:03.858Z,8.77
2023-05-15T00:42:07.878Z,8.00
2023-05-15T00:43:11.966Z,8.80
2023-05-15T00:44:15.331Z,8.52
2023-05-15T00:45:17.954Z,13.07
2023-05-15T00:46:20.826Z,8.20
2023-05-15T00:47:24.877Z,9.48
2023-05-15T00:48:29.149Z,8.52
2023-05-15T00:49:35.354Z,8.57
2023-05-15T00:50:38.228Z,8.55
2023-05-15T00:51:41.846Z,9.20
2023-05-15T00:52:43.383Z,8.52
2023-05-15T00:53:46.181Z,8.73
2023-05-15T00:54:47.721Z,8.65
2023-05-15T00:55:50.789Z,9.30
2023-05-15T00:56:56.140Z,10.35
2023-05-15T00:57:59.123Z,9.93
2023-05-15T00:59:02.614Z,10.05
2023-05-15T01:00:10.301Z,8.18
2023-05-15T01:01:12.088Z,8.77
2023-05-15T01:02:18.647Z,8.88
2023-05-15T01:03:20.720Z,7.88
2023-05-15T01:04:24.792Z,9.45
2023-05-15T01:05:26.526Z,9.55
2023-05-15T01:06:30.014Z,8.82
2023-05-15T01:07:35.216Z,9.35
2023-05-15T01:08:43.464Z,8.82
2023-05-15T01:09:47.397Z,8.20
2023-05-15T01:10:50.878Z,7.60
2023-05-15T01:11:55.149Z,8.30
2023-05-15T01:12:59.133Z,8.70
2023-05-15T01:15:15.464Z,8.88
2023-05-15T01:16:17.929Z,9.80
2023-05-15T01:17:19.535Z,8.65
2023-05-15T01:18:22.145Z,10.88
2023-05-15T01:19:25.199Z,8.73
2023-05-15T01:20:28.433Z,8.48
2023-05-15T01:21:51.669Z,8.35
2023-05-15T01:23:10.563Z,8.35
2023-05-15T01:24:31.170Z,8.60
2023-05-15T01:26:15.721Z,9.07
2023-05-15T01:27:27.592Z,10.00
2023-05-15T01:28:33.232Z,8.57
2023-05-15T01:29:41.312Z,8.57
2023-05-15T01:30:45.922Z,10.88
2023-05-15T01:31:52.468Z,9.23
2023-05-15T01:33:03.585Z,8.68
2023-05-15T01:34:09.458Z,10.23
2023-05-15T01:35:17.328Z,10.85
2023-05-15T01:36:24.552Z,9.02
2023-05-15T01:37:29.996Z,9.02
2023-05-15T01:38:38.793Z,9.23
2023-05-15T01:39:45.151Z,10.45
2023-05-15T01:40:48.706Z,8.30
2023-05-15T01:41:58.083Z,9.35
2023-05-15T01:43:08.004Z,9.50
2023-05-15T01:44:17.872Z,9.93
2023-05-15T01:45:21.315Z,8.13
2023-05-15T01:46:25.405Z,9.38
2023-05-15T01:47:31.857Z,11.48
2023-05-15T01:48:36.560Z,10.90
2023-05-15T01:49:39.537Z,10.43
2023-05-15T01:50:43.902Z,9.82
2023-05-15T01:51:48.932Z,9.77
2023-05-15T01:52:55.322Z,11.65
2023-05-15T01:53:59.334Z,9.93
2023-05-15T01:55:03.635Z,10.50
2023-05-15T01:56:09.246Z,9.75
2023-05-15T01:57:13.221Z,9.85
2023-05-15T01:58:16.306Z,9.35
2023-05-15T01:59:20.208Z,10.00
2023-05-15T02:00:22.431Z,10.82
2023-05-15T02:01:25.451Z,9.70
2023-05-15T02:02:28.190Z,10.50
2023-05-15T02:03:34.366Z,9.68
2023-05-15T02:04:38.026Z,10.60
2023-05-15T02:05:41.345Z,10.23
2023-05-15T02:06:43.951Z,11.43
2023-05-15T02:07:47.618Z,9.50
2023-05-15T02:08:49.726Z,9.63
2023-05-15T02:09:52.883Z,10.38
2023-05-15T02:10:55.229Z,9.13
2023-05-15T02:11:58.606Z,10.80
2023-05-15T02:13:00.551Z,11.77
2023-05-15T02:14:06.003Z,9.50
2023-05-15T02:15:09.882Z,9.80
2023-05-15T02:16:12.418Z,9.52
2023-05-15T02:17:14.029Z,9.45
2023-05-15T02:18:16.683Z,9.73
2023-05-15T02:19:18.369Z,11.05
2023-05-15T02:20:21.131Z,11.70
2023-05-15T02:21:23.045Z,9.75
2023-05-15T02:22:25.474Z,9.38
2023-05-15T02:23:27.022Z,9.77
2023-05-15T02:24:29.489Z,10.00
2023-05-15T02:25:38.496Z,9.70
2023-05-15T02:26:49.173Z,9.45
2023-05-15T02:27:57.512Z,8.85
2023-05-15T02:29:13.553Z,9.45
2023-05-15T02:30:23.535Z,10.00
2023-05-15T02:31:36.746Z,7.55
2023-05-15T02:32:47.088Z,10.27
2023-05-15T02:33:56.900Z,10.27
2023-05-15T02:35:06.672Z,13.38
2023-05-15T02:36:12.076Z,10.75
2023-05-15T02:37:15.582Z,12.88
2023-05-15T02:38:23.980Z,10.52
2023-05-15T02:39:27.277Z,11.15
2023-05-15T02:40:31.092Z,10.98
2023-05-15T02:41:35.341Z,12.75
2023-05-15T02:42:38.705Z,14.05
2023-05-15T02:43:41.146Z,11.88
2023-05-15T02:44:45.293Z,10.32
2023-05-15T02:45:47.425Z,10.65
2023-05-15T02:46:51.518Z,12.30
2023-05-15T02:47:54.055Z,11.70
2023-05-15T02:48:56.863Z,10.48
2023-05-15T02:49:59.374Z,11.68
2023-05-15T02:51:02.183Z,10.90
2023-05-15T02:52:04.177Z,11.32
2023-05-15T02:53:09.740Z,14.80
2023-05-15T02:54:11.612Z,10.82
2023-05-15T02:55:14.458Z,11.20
2023-05-15T02:56:16.124Z,12.38
2023-05-15T02:57:18.638Z,12.13
2023-05-15T02:58:20.208Z,13.90
2023-05-15T02:59:23.117Z,11.60
2023-05-15T03:00:26.217Z,13.02
2023-05-15T03:01:28.717Z,11.25
2023-05-15T03:02:30.245Z,11.95
2023-05-15T03:03:32.779Z,11.40
2023-05-15T03:04:34.314Z,12.75
2023-05-15T03:05:36.744Z,11.73
2023-05-15T03:06:38.300Z,10.77
2023-05-15T03:07:42.130Z,12.77
2023-05-15T03:08:43.640Z,13.23
2023-05-15T03:09:46.099Z,11.48
2023-05-15T03:10:47.718Z,15.23
2023-05-15T03:11:50.216Z,11.43
2023-05-15T03:12:51.752Z,12.43
2023-05-15T03:13:54.222Z,13.20
2023-05-15T03:14:57.993Z,12.18
2023-05-15T03:16:01.751Z,11.57
2023-05-15T03:17:03.646Z,12.43
2023-05-15T03:18:06.339Z,12.00
2023-05-15T03:19:07.993Z,12.48
2023-05-15T03:20:11.140Z,11.52
2023-05-15T03:21:12.944Z,12.75
2023-05-15T03:22:15.780Z,13.35
2023-05-15T03:23:17.290Z,12.48
2023-05-15T03:24:19.764Z,11.75
2023-05-15T03:25:22.377Z,11.70
2023-05-15T03:26:24.850Z,13.13
2023-05-15T03:27:26.491Z,12.40
2023-05-15T03:28:29.013Z,12.43
2023-05-15T03:29:30.594Z,12.00
2023-05-15T03:30:33.030Z,11.15
2023-05-15T03:31:36.068Z,12.25
2023-05-15T03:32:38.735Z,13.35
2023-05-15T03:33:40.386Z,12.50
2023-05-15T03:34:42.812Z,12.65
2023-05-15T03:35:44.705Z,11.90
2023-05-15T03:36:47.321Z,11.68
2023-05-15T03:37:48.912Z,12.77
2023-05-15T03:38:51.394Z,14.85
2023-05-15T03:39:53.026Z,11.38
2023-05-15T03:40:55.501Z,12.23
2023-05-15T03:41:57.016Z,12.45
2023-05-15T03:42:59.453Z,11.30
2023-05-15T03:44:00.941Z,12.98
2023-05-15T03:45:03.647Z,13.40
2023-05-15T03:46:05.654Z,12.52
2023-05-15T03:47:09.562Z,11.95
2023-05-15T03:48:11.074Z,11.90
2023-05-15T03:49:13.476Z,12.20
2023-05-15T03:50:15.461Z,13.60
2023-05-15T03:51:17.991Z,12.80
2023-05-15T03:52:19.601Z,11.70
2023-05-15T03:53:22.124Z,12.52
2023-05-15T03:54:23.846Z,11.90
2023-05-15T03:55:26.521Z,11.77
2023-05-15T03:56:28.238Z,13.68
2023-05-15T03:57:30.735Z,13.25
2023-05-15T03:58:32.264Z,12.10
2023-05-15T03:59:34.818Z,12.00
2023-05-15T04:00:36.334Z,13.50
2023-05-15T04:01:50.315Z,11.57
2023-05-15T04:02:58.603Z,11.10
2023-05-15T04:04:01.191Z,11.50
2023-05-15T04:05:03.212Z,12.45
2023-05-15T04:06:06.443Z,11.70
2023-05-15T04:07:07.981Z,11.60
2023-05-15T04:08:12.300Z,12.80
2023-05-15T04:09:13.815Z,12.52
2023-05-15T04:10:16.274Z,16.95
2023-05-15T04:11:18.252Z,12.85
2023-05-15T04:12:20.721Z,13.48
2023-05-15T04:13:22.222Z,11.48
2023-05-15T04:14:24.631Z,12.45
2023-05-15T04:15:27.081Z,12.55
2023-05-15T04:16:29.919Z,13.95
2023-05-15T04:17:31.695Z,12.60
2023-05-15T04:18:35.566Z,13.70
2023-05-15T04:19:37.087Z,14.52
2023-05-15T04:20:39.564Z,13.13
2023-05-15T04:21:41.109Z,13.20
2023-05-15T04:22:44.656Z,13.05
2023-05-15T04:23:46.242Z,13.55
2023-05-15T04:24:48.701Z,13.25
2023-05-15T04:25:53.763Z,12.35
2023-05-15T04:26:56.355Z,12.90
2023-05-15T04:27:58.079Z,12.65
2023-05-15T04:29:04.411Z,13.48
2023-05-15T04:30:07.925Z,14.63
2023-05-15T04:31:10.773Z,13.02
2023-05-15T04:32:12.814Z,13.27
2023-05-15T04:33:15.537Z,12.85
2023-05-15T04:34:18.445Z,14.13
2023-05-15T04:35:20.941Z,12.93
2023-05-15T04:36:22.918Z,12.10
2023-05-15T04:37:25.497Z,12.55
2023-05-15T04:38:28.311Z,15.77
2023-05-15T04:39:29.804Z,12.30
2023-05-15T04:40:32.684Z,12.60
2023-05-15T04:41:34.192Z,16.52
2023-05-15T04:42:39.138Z,12.55
2023-05-15T04:43:41.454Z,12.30
2023-05-15T04:44:44.726Z,14.30
2023-05-15T04:45:46.343Z,12.85
2023-05-15T04:46:48.793Z,13.40
2023-05-15T04:47:50.400Z,14.50
2023-05-15T04:48:52.899Z,13.43
2023-05-15T04:49:56.202Z,12.68
2023-05-15T04:50:58.646Z,12.75
2023-05-15T04:52:00.217Z,13.15
2023-05-15T04:53:02.831Z,13.70
2023-05-15T04:54:04.747Z,12.63
2023-05-15T04:55:08.659Z,11.48
2023-05-15T04:56:10.465Z,14.20
2023-05-15T04:57:13.182Z,11.10
2023-05-15T04:58:14.640Z,13.77
2023-05-15T04:59:18.142Z,14.05
2023-05-15T05:00:20.715Z,13.02
2023-05-15T05:01:22.242Z,13.10
2023-05-15T05:02:25.535Z,16.77
2023-05-15T05:03:27.118Z,14.07
2023-05-15T05:04:29.902Z,12.48
2023-05-15T05:05:32.771Z,12.98
2023-05-15T05:06:35.662Z,15.90
2023-05-15T05:07:37.190Z,14.55
2023-05-15T05:08:39.625Z,13.00
2023-05-15T05:09:41.220Z,11.93
2023-05-15T05:10:43.937Z,12.73
2023-05-15T05:11:45.575Z,13.43
2023-05-15T05:12:48.026Z,12.65
2023-05-15T05:13:50.990Z,13.95
2023-05-15T05:14:53.501Z,13.50
2023-05-15T05:15:55.030Z,12.50
2023-05-15T05:16:57.598Z,12.23
2023-05-15T05:17:59.152Z,13.43
2023-05-15T05:19:01.703Z,13.85
2023-05-15T05:20:04.826Z,12.73
2023-05-15T05:21:08.636Z,12.65
2023-05-15T05:22:11.476Z,12.70
2023-05-15T05:23:14.809Z,12.85
2023-05-15T05:24:16.305Z,12.43
2023-05-15T05:25:18.928Z,13.07
2023-05-15T05:26:21.075Z,12.10
2023-05-15T05:27:23.546Z,12.57
2023-05-15T05:28:25.170Z,12.85
2023-05-15T05:29:27.844Z,12.35
2023-05-15T05:30:29.402Z,15.18
2023-05-15T05:31:32.000Z,12.93
2023-05-15T05:32:33.668Z,13.20
2023-05-15T05:33:36.212Z,13.20
2023-05-15T05:34:37.760Z,12.65
2023-05-15T05:35:40.388Z,12.43
2023-05-15T05:36:43.194Z,16.17
2023-05-15T05:37:45.641Z,12.68
2023-05-15T05:38:47.170Z,11.13
2023-05-15T05:39:49.671Z,14.38
2023-05-15T05:40:51.155Z,12.40
2023-05-15T05:41:53.673Z,11.88
2023-05-15T05:42:55.276Z,12.10
2023-05-15T05:43:57.729Z,13.30
2023-05-15T05:44:59.518Z,12.05
2023-05-15T05:46:02.516Z,12.05
2023-05-15T05:47:04.498Z,12.68
2023-05-15T05:48:07.195Z,12.30
2023-05-15T05:49:08.717Z,11.52
2023-05-15T05:50:11.735Z,11.98
2023-05-15T05:51:13.250Z,12.02
2023-05-15T05:52:17.163Z,13.90
2023-05-15T05:53:18.701Z,11.13
2023-05-15T05:54:21.188Z,10.95
2023-05-15T05:55:22.896Z,13.55
2023-05-15T05:56:26.566Z,10.95
2023-05-15T05:57:28.129Z,13.07
2023-05-15T05:58:30.985Z,12.20
2023-05-15T05:59:32.457Z,11.35
2023-05-15T06:00:34.870Z,13.80
2023-05-15T06:01:36.441Z,12.50
2023-05-15T06:02:39.310Z,13.15
2023-05-15T06:03:43.174Z,11.48
2023-05-15T06:04:46.082Z,12.07
2023-05-15T06:05:48.554Z,11.10
2023-05-15T06:06:51.091Z,10.57
2023-05-15T06:07:54.590Z,10.73
2023-05-15T06:08:57.096Z,11.00
2023-05-15T06:09:58.596Z,11.23
2023-05-15T06:11:01.114Z,11.00
2023-05-15T06:12:04.812Z,11.13
2023-05-15T06:13:08.039Z,14.27
2023-05-15T06:14:09.581Z,10.43
2023-05-15T06:15:12.990Z,10.75
2023-05-15T06:16:14.497Z,10.40
2023-05-15T06:17:17.140Z,9.65
2023-05-15T06:18:18.660Z,11.18
2023-05-15T06:19:21.893Z,11.00
2023-05-15T06:20:23.709Z,10.75
2023-05-15T06:21:26.246Z,9.90
2023-05-15T06:22:27.825Z,9.45
2023-05-15T06:23:31.596Z,10.68
2023-05-15T06:24:33.239Z,10.23
2023-05-15T06:25:35.803Z,8.70
2023-05-15T06:26:38.300Z,10.32
2023-05-15T06:27:40.789Z,9.60
2023-05-15T06:28:43.223Z,9.60
2023-05-15T06:29:45.695Z,9.68
2023-05-15T06:30:47.268Z,9.25
2023-05-15T06:31:49.776Z,9.30
2023-05-15T06:32:51.312Z,11.30
2023-05-15T06:33:53.777Z,11.65
2023-05-15T06:34:55.380Z,9.23
2023-05-15T06:35:57.916Z,9.43
2023-05-15T06:37:00.270Z,9.43
2023-05-15T06:38:02.921Z,11.43
2023-05-15T06:39:06.006Z,9.25
2023-05-15T06:40:09.766Z,9.90
2023-05-15T06:41:11.272Z,9.73
2023-05-15T06:42:15.071Z,10.63
2023-05-15T06:43:16.659Z,11.93
2023-05-15T06:44:19.312Z,11.77
2023-05-15T06:45:20.908Z,10.43
2023-05-15T06:46:23.460Z,12.38
2023-05-15T06:47:25.226Z,9.45
2023-05-15T06:48:27.722Z,9.57
2023-05-15T06:49:29.260Z,10.35
2023-05-15T06:50:32.222Z,10.02
2023-05-15T06:51:33.726Z,10.05
2023-05-15T06:52:36.161Z,9.45
2023-05-15T06:53:37.703Z,11.38
2023-05-15T06:54:42.737Z,9.63
2023-05-15T06:55:44.305Z,9.50
2023-05-15T06:56:46.726Z,9.25
2023-05-15T06:57:48.217Z,11.30
2023-05-15T06:58:50.833Z,9.73
2023-05-15T06:59:52.308Z,9.88
2023-05-15T07:00:56.285Z,9.77
2023-05-15T07:01:59.155Z,11.20
2023-05-15T07:03:00.715Z,11.23
2023-05-15T07:04:03.212Z,9.27
2023-05-15T07:05:05.844Z,10.05
2023-05-15T07:06:08.661Z,13.40
2023-05-15T07:07:10.695Z,10.50
2023-05-15T07:08:13.130Z,12.60
2023-05-15T07:09:14.625Z,12.93
2023-05-15T07:10:18.744Z,13.40
2023-05-15T07:11:20.750Z,10.27
2023-05-15T07:12:23.183Z,12.27
2023-05-15T07:13:26.125Z,9.73
2023-05-15T07:14:27.650Z,12.25
2023-05-15T07:15:30.043Z,10.55
2023-05-15T07:16:31.542Z,9.95
2023-05-15T07:17:34.573Z,12.75
2023-05-15T07:18:36.254Z,8.18
2023-05-15T07:19:38.825Z,7.32
2023-05-15T07:20:40.418Z,9.93
2023-05-15T07:21:42.845Z,10.40
2023-05-15T07:22:55.561Z,9.20
2023-05-15T07:23:57.620Z,10.68
2023-05-15T07:25:00.088Z,10.70
2023-05-15T07:26:02.955Z,11.60
2023-05-15T07:27:06.239Z,8.88
2023-05-15T07:28:07.773Z,10.38
2023-05-15T07:29:11.533Z,10.05
2023-05-15T07:30:14.829Z,10.18
2023-05-15T07:31:17.418Z,10.45
2023-05-15T07:32:19.589Z,10.95
2023-05-15T07:33:22.441Z,11.38
2023-05-15T07:34:24.083Z,9.57
2023-05-15T07:35:27.029Z,11.18
2023-05-15T07:36:29.116Z,9.65
2023-05-15T07:37:31.695Z,11.18
2023-05-15T07:38:33.245Z,9.20
2023-05-15T07:39:35.710Z,11.38
2023-05-15T07:40:37.264Z,9.50
2023-05-15T07:41:43.003Z,10.88
2023-05-15T07:42:44.735Z,9.02
2023-05-15T07:43:47.210Z,11.07
2023-05-15T07:44:49.608Z,8.82
2023-05-15T07:45:52.496Z,11.25
2023-05-15T07:46:55.111Z,10.48
2023-05-15T07:47:58.786Z,8.43
2023-05-15T07:49:00.540Z,8.82
2023-05-15T07:50:03.335Z,10.07
2023-05-15T07:51:05.436Z,8.23
2023-05-15T07:52:08.370Z,9.80
2023-05-15T07:53:09.882Z,8.57
2023-05-15T07:54:12.332Z,14.40
2023-05-15T07:55:14.884Z,8.07
2023-05-15T07:56:17.479Z,7.57
2023-05-15T07:57:21.262Z,7.63
2023-05-15T07:58:23.299Z,8.90
2023-05-15T07:59:26.003Z,9.93
2023-05-15T08:00:27.520Z,7.28
2023-05-15T08:01:31.393Z,7.80
2023-05-15T08:02:34.312Z,7.95
2023-05-15T08:03:37.076Z,8.00
2023-05-15T08:04:39.745Z,7.50
2023-05-15T08:05:41.328Z,7.97
2023-05-15T08:06:44.652Z,7.28
2023-05-15T08:07:46.332Z,8.60
2023-05-15T08:08:48.816Z,7.22
2023-05-15T08:09:50.384Z,7.90
2023-05-15T08:10:52.869Z,7.72
2023-05-15T08:11:56.273Z,7.55
2023-05-15T08:13:00.131Z,13.85
2023-05-15T08:14:01.690Z,7.22
2023-05-15T08:15:04.664Z,7.43
2023-05-15T08:16:06.548Z,7.57
2023-05-15T08:17:09.084Z,8.30
2023-05-15T08:18:11.981Z,9.40
2023-05-15T08:19:14.492Z,7.25
2023-05-15T08:20:17.664Z,7.50
2023-05-15T08:21:19.200Z,7.45
2023-05-15T08:22:21.703Z,8.95
2023-05-15T08:23:24.181Z,8.00
2023-05-15T08:24:26.709Z,7.30
2023-05-15T08:25:28.214Z,10.07
2023-05-15T08:26:30.672Z,9.73
2023-05-15T08:27:32.210Z,8.45
2023-05-15T08:28:35.949Z,7.57
2023-05-15T08:29:39.586Z,7.78
2023-05-15T08:30:42.266Z,7.38
2023-05-15T08:31:44.001Z,8.60
2023-05-15T08:32:46.539Z,9.55
2023-05-15T08:33:48.101Z,6.70
2023-05-15T08:34:50.586Z,8.27
2023-05-15T08:35:52.489Z,6.88
2023-05-15T08:36:55.870Z,7.25
2023-05-15T08:37:58.875Z,6.60
2023-05-15T08:39:01.733Z,6.20
2023-05-15T08:40:05.277Z,7.30
2023-05-15T08:41:12.466Z,11.13
2023-05-15T08:42:20.873Z,8.77
2023-05-15T08:43:23.913Z,5.95
2023-05-15T08:44:27.543Z,8.93
2023-05-15T08:45:30.325Z,6.45
2023-05-15T08:46:32.850Z,6.40
2023-05-15T08:47:39.591Z,11.18
2023-05-15T08:48:43.153Z,5.78
2023-05-15T08:49:55.013Z,7.60
2023-05-15T08:50:58.735Z,6.60
2023-05-15T08:52:00.675Z,16.85
2023-05-15T08:53:03.497Z,6.82
2023-05-15T08:54:05.057Z,6.63
2023-05-15T08:55:08.660Z,10.07
2023-05-15T08:56:11.652Z,8.20
2023-05-15T08:57:14.597Z,7.30
2023-05-15T08:58:18.221Z,7.30
2023-05-15T08:59:20.206Z,6.05
2023-05-15T09:00:24.358Z,5.72
2023-05-15T09:01:26.780Z,6.35
2023-05-15T09:02:29.897Z,5.38
2023-05-15T09:03:31.892Z,6.97
2023-05-15T09:04:34.517Z,8.15
2023-05-15T09:05:39.424Z,6.35
2023-05-15T09:06:43.499Z,5.50
2023-05-15T09:07:47.403Z,9.35
2023-05-15T09:08:50.965Z,5.07
2023-05-15T09:09:53.536Z,5.50
2023-05-15T09:10:57.361Z,7.97
2023-05-15T09:12:00.380Z,6.60
2023-05-15T09:13:04.383Z,8.80
2023-05-15T09:14:07.472Z,6.00
2023-05-15T09:15:11.190Z,7.88
2023-05-15T09:16:15.232Z,5.72
2023-05-15T09:17:17.779Z,6.18
2023-05-15T09:18:21.063Z,5.70
2023-05-15T09:19:22.779Z,6.18
2023-05-15T09:20:27.771Z,7.25
2023-05-15T09:21:32.105Z,5.72
2023-05-15T09:22:35.152Z,4.88
2023-05-15T09:23:37.578Z,4.63
2023-05-15T09:24:39.084Z,7.03
2023-05-15T09:25:44.692Z,5.35
2023-05-15T09:26:47.661Z,6.22
2023-05-15T09:27:50.167Z,4.40
2023-05-15T09:28:53.022Z,4.55
2023-05-15T09:29:57.843Z,4.47
2023-05-15T09:31:02.856Z,7.53
2023-05-15T09:32:08.063Z,5.00
2023-05-15T09:33:12.954Z,5.55
2023-05-15T09:34:15.646Z,5.97
2023-05-15T09:35:31.836Z,5.43
2023-05-15T09:36:34.533Z,5.40
2023-05-15T09:37:36.029Z,3.75
2023-05-15T09:38:42.792Z,4.65
2023-05-15T09:39:44.621Z,5.93
2023-05-15T09:40:47.136Z,4.75
2023-05-15T09:41:49.625Z,5.22
2023-05-15T09:42:53.009Z,4.80
2023-05-15T09:43:56.535Z,4.68
2023-05-15T09:44:58.960Z,6.13
2023-05-15T09:46:02.075Z,5.53
2023-05-15T09:47:07.893Z,5.32
2023-05-15T09:48:12.729Z,5.63
2023-05-15T09:49:16.391Z,6.03
2023-05-15T09:50:21.498Z,5.70
2023-05-15T09:51:24.058Z,5.20
2023-05-15T09:52:28.332Z,5.93
2023-05-15T09:53:31.746Z,5.10
2023-05-15T09:54:33.384Z,5.65
2023-05-15T09:55:36.354Z,6.38
2023-05-15T09:56:38.845Z,7.28
2023-05-15T09:57:41.248Z,4.60
2023-05-15T09:58:53.498Z,4.88
2023-05-15T09:59:55.958Z,4.32
2023-05-15T10:01:00.905Z,4.75
2023-05-15T10:02:03.397Z,4.47
2023-05-15T10:03:08.019Z,6.88
2023-05-15T10:04:11.208Z,4.15
2023-05-15T10:05:13.721Z,5.97
2023-05-15T10:06:18.815Z,5.53
2023-05-15T10:07:31.440Z,5.05
2023-05-15T10:08:34.907Z,4.90
2023-05-15T10:09:36.445Z,4.75
2023-05-15T10:10:39.183Z,4.07
2023-05-15T10:11:44.402Z,4.20
2023-05-15T10:12:48.289Z,4.30
2023-05-15T10:13:50.950Z,4.55
2023-05-15T10:14:56.974Z,6.18
2023-05-15T10:15:59.523Z,3.88
2023-05-15T10:17:02.888Z,4.80
2023-05-15T10:18:07.595Z,4.60
2023-05-15T10:19:11.638Z,4.03
2023-05-15T10:20:14.905Z,4.70
2023-05-15T10:21:18.353Z,4.72
2023-05-15T10:22:24.643Z,3.65
2023-05-15T10:23:29.552Z,7.72
2023-05-15T10:24:33.513Z,3.70
2023-05-15T10:25:42.715Z,4.55
2023-05-15T10:26:45.166Z,4.57
2023-05-15T10:27:47.584Z,5.68
2023-05-15T10:28:51.130Z,5.60
2023-05-15T10:29:54.387Z,4.20
2023-05-15T10:31:01.146Z,6.20
2023-05-15T10:32:04.147Z,7.72
2023-05-15T10:33:09.118Z,3.45
2023-05-15T10:34:12.005Z,5.03
2023-05-15T10:35:14.550Z,4.53
2023-05-15T10:36:17.461Z,3.78
2023-05-15T10:37:20.423Z,7.22
2023-05-15T10:38:22.863Z,5.05
2023-05-15T10:39:28.195Z,4.97
2023-05-15T10:40:31.876Z,4.05
2023-05-15T10:41:38.289Z,5.00
2023-05-15T10:42:42.118Z,6.20
2023-05-15T10:43:45.162Z,5.38
2023-05-15T10:44:49.080Z,4.60
2023-05-15T10:45:53.240Z,7.13
2023-05-15T10:46:56.712Z,5.15
2023-05-15T10:48:00.711Z,8.30
2023-05-15T10:49:04.297Z,6.03
2023-05-15T10:50:07.893Z,4.38
2023-05-15T10:51:16.364Z,4.63
2023-05-15T10:52:18.898Z,6.63
2023-05-15T10:53:21.455Z,10.27
2023-05-15T10:54:23.050Z,5.88
2023-05-15T10:55:25.814Z,4.25
2023-05-15T10:56:31.055Z,4.47
2023-05-15T10:57:32.844Z,4.72
2023-05-15T10:58:35.316Z,6.35
2023-05-15T10:59:37.976Z,4.63
2023-05-15T11:00:44.845Z,6.43
2023-05-15T11:01:49.177Z,5.53
2023-05-15T11:02:53.957Z,6.20
2023-05-15T11:04:09.290Z,6.43
2023-05-15T11:05:12.879Z,5.97
2023-05-15T11:06:14.439Z,6.13
2023-05-15T11:07:18.171Z,5.32
2023-05-15T11:08:28.555Z,5.22
2023-05-15T11:09:35.721Z,4.78
2023-05-15T11:10:39.388Z,4.40
2023-05-15T11:11:56.785Z,7.10
2023-05-15T11:12:59.900Z,4.90
2023-05-15T11:14:15.175Z,7.82
2023-05-15T11:15:21.923Z,4.30
2023-05-15T11:16:57.977Z,4.53
2023-05-15T11:18:04.815Z,4.35
2023-05-15T11:19:22.199Z,4.85
2023-05-15T11:20:35.061Z,5.45
2023-05-15T11:21:46.243Z,4.40
2023-05-15T11:22:58.934Z,4.65
2023-05-15T11:24:05.437Z,4.90
2023-05-15T11:25:10.235Z,4.78
2023-05-15T11:26:13.344Z,5.63
2023-05-15T11:27:19.475Z,7.30
2023-05-15T11:28:23.284Z,7.47
2023-05-15T11:29:24.747Z,7.00
2023-05-15T11:30:37.319Z,5.13
2023-05-15T11:31:38.884Z,6.13
2023-05-15T11:32:48.937Z,6.63
2023-05-15T11:33:52.495Z,9.32
2023-05-15T11:35:00.156Z,4.35
2023-05-15T11:36:06.232Z,7.57
2023-05-15T11:37:16.947Z,4.95
2023-05-15T11:39:24.082Z,5.72
2023-05-15T11:40:28.803Z,5.72
2023-05-15T11:41:32.824Z,8.45
2023-05-15T11:42:34.480Z,5.80
2023-05-15T11:43:37.249Z,6.45
2023-05-15T11:44:39.731Z,10.30
2023-05-15T11:45:42.450Z,4.82
2023-05-15T11:46:45.131Z,7.10
2023-05-15T11:47:47.256Z,5.03
2023-05-15T11:48:51.227Z,6.70
2023-05-15T11:49:52.921Z,5.95
2023-05-15T11:50:57.043Z,6.05
2023-05-15T11:51:59.776Z,4.43
2023-05-15T11:53:07.374Z,6.80
2023-05-15T11:54:11.638Z,6.82
2023-05-15T11:55:13.654Z,7.00
2023-05-15T11:56:19.322Z,5.07
2023-05-15T11:57:22.422Z,5.18
2023-05-15T11:58:26.618Z,4.85
2023-05-15T11:59:28.112Z,6.65
2023-05-15T12:00:30.908Z,7.85
2023-05-15T12:01:40.440Z,6.30
2023-05-15T12:02:42.136Z,6.53
2023-05-15T12:03:47.614Z,4.63
2023-05-15T12:04:49.984Z,4.88
2023-05-15T12:05:58.875Z,8.77
2023-05-15T12:07:03.723Z,7.63
2023-05-15T12:08:10.463Z,6.20
2023-05-15T12:09:17.075Z,5.70
2023-05-15T12:10:18.868Z,6.55
2023-05-15T12:11:22.974Z,9.98
2023-05-15T12:12:27.595Z,5.28
2023-05-15T12:13:31.326Z,5.53
2023-05-15T12:14:33.821Z,6.55
2023-05-15T12:15:38.808Z,5.55
2023-05-15T12:16:41.263Z,4.70
2023-05-15T12:17:45.594Z,5.68
2023-05-15T12:18:48.502Z,7.20
2023-05-15T12:19:51.341Z,6.10
2023-05-15T12:20:54.459Z,4.28
2023-05-15T12:21:55.963Z,3.90
2023-05-15T12:22:59.727Z,7.78
2023-05-15T12:25:08.523Z,4.45
2023-05-15T12:26:11.159Z,6.18
2023-05-15T12:27:13.751Z,4.53
2023-05-15T12:28:16.991Z,6.53
2023-05-15T12:29:19.862Z,4.32
2023-05-15T12:30:22.566Z,6.85
2023-05-15T12:31:25.406Z,4.97
2023-05-15T12:32:27.676Z,4.60
2023-05-15T12:33:30.523Z,7.28
2023-05-15T12:34:33.678Z,5.40
2023-05-15T12:35:36.967Z,4.57
2023-05-15T12:36:41.253Z,7.70
2023-05-15T12:37:43.802Z,5.43
2023-05-15T12:38:47.617Z,6.13
2023-05-15T12:39:51.077Z,6.43
2023-05-15T12:40:54.569Z,5.43
2023-05-15T12:41:59.160Z,4.25
2023-05-15T12:43:06.723Z,8.00
2023-05-15T12:44:16.955Z,6.20
2023-05-15T12:45:21.259Z,5.75
2023-05-15T12:46:24.739Z,4.32
2023-05-15T12:47:28.844Z,6.18
2023-05-15T12:48:32.026Z,5.20
2023-05-15T12:49:37.244Z,6.32
2023-05-15T12:50:39.718Z,5.60
2023-05-15T12:51:45.290Z,7.10
2023-05-15T12:52:55.260Z,4.53
2023-05-15T12:53:59.048Z,8.50
2023-05-15T12:55:00.772Z,6.03
2023-05-15T12:56:04.715Z,6.65
2023-05-15T12:57:08.067Z,6.28
2023-05-15T12:58:12.343Z,6.28
2023-05-15T12:59:14.007Z,6.07
2023-05-15T13:00:17.240Z,6.28
2023-05-15T13:01:19.794Z,6.88
2023-05-15T13:02:23.754Z,5.88
2023-05-15T13:03:27.885Z,5.57
2023-05-15T13:04:33.702Z,7.57
2023-05-15T13:05:37.395Z,4.28
2023-05-15T13:06:46.533Z,4.95
2023-05-15T13:07:49.648Z,4.55
2023-05-15T13:08:52.597Z,5.28
2023-05-15T13:10:08.449Z,7.15
2023-05-15T13:11:15.124Z,6.68
2023-05-15T13:12:20.059Z,4.35
2023-05-15T13:13:22.656Z,6.20
2023-05-15T13:14:27.223Z,6.05
2023-05-15T13:15:31.414Z,10.50
2023-05-15T13:16:33.958Z,5.60
2023-05-15T13:17:35.667Z,5.25
2023-05-15T13:18:38.146Z,4.40
2023-05-15T13:19:40.586Z,11.73
2023-05-15T13:20:44.601Z,6.00
2023-05-15T13:21:47.235Z,5.88
2023-05-15T13:22:48.728Z,4.90
2023-05-15T13:23:51.638Z,5.00
2023-05-15T13:24:54.266Z,6.95
2023-05-15T13:25:57.980Z,6.57
2023-05-15T13:27:00.359Z,9.77
2023-05-15T13:28:04.801Z,5.68
2023-05-15T13:29:06.289Z,9.35
2023-05-15T13:30:09.891Z,7.80
2023-05-15T13:31:14.066Z,7.63
2023-05-15T13:32:15.638Z,5.70
2023-05-15T13:33:18.199Z,5.63
2023-05-15T13:34:21.141Z,5.78
2023-05-15T13:35:23.967Z,6.40
2023-05-15T13:36:26.380Z,4.68
2023-05-15T13:37:27.922Z,8.20
2023-05-15T13:38:30.496Z,6.57
2023-05-15T13:39:32.967Z,5.53
2023-05-15T13:40:36.427Z,3.97
2023-05-15T13:41:40.357Z,6.82
2023-05-15T13:42:43.199Z,8.85
2023-05-15T13:43:47.756Z,6.55
2023-05-15T13:44:49.244Z,4.15
2023-05-15T13:45:51.718Z,6.03
2023-05-15T13:46:53.248Z,12.30
2023-05-15T13:47:55.988Z,7.88
2023-05-15T13:48:58.476Z,6.57
2023-05-15T13:50:00.110Z,9.35
2023-05-15T13:51:02.627Z,4.10
2023-05-15T13:52:05.421Z,4.85
2023-05-15T13:53:08.064Z,6.43
2023-05-15T13:54:10.602Z,8.13
2023-05-15T13:55:12.491Z,6.78
2023-05-15T13:56:14.933Z,4.07
2023-05-15T13:57:18.029Z,7.25
2023-05-15T13:58:20.674Z,16.33
2023-05-15T13:59:23.162Z,5.00
2023-05-15T14:00:25.122Z,8.30